createdAt,value
2018-04-11T00:00:46.076Z,23.97
2018-04-11T00:03:50.976Z,20.80
2018-04-11T00:06:54.926Z,24.07
2018-04-11T00:09:59.403Z,24.73
2018-04-11T00:13:03.327Z,24.00
2018-04-11T00:16:08.036Z,28.33
2018-04-11T00:19:12.627Z,30.87
2018-04-11T00:22:16.500Z,34.50
2018-04-11T00:25:20.448Z,34.63
2018-04-11T00:28:24.397Z,34.13
2018-04-11T00:31:31.943Z,35.70
2018-04-11T00:34:36.116Z,36.63
2018-04-11T00:37:39.924Z,35.47
2018-04-11T00:40:43.924Z,35.43
2018-04-11T00:43:47.786Z,36.30
2018-04-11T00:46:52.879Z,35.03
2018-04-11T00:49:56.816Z,37.30
2018-04-11T00:53:18.643Z,38.63
2018-04-11T00:56:22.880Z,36.20
2018-04-11T00:59:26.791Z,38.17
2018-04-11T01:02:31.995Z,37.47
2018-04-11T01:05:35.863Z,38.33
2018-04-11T01:08:39.754Z,36.90
2018-04-11T01:11:44.074Z,36.73
2018-04-11T01:14:47.992Z,40.27
2018-04-11T01:17:52.683Z,37.07
2018-04-11T01:20:56.789Z,36.83
2018-04-11T01:24:00.592Z,37.50
2018-04-11T01:27:04.436Z,34.17
2018-04-11T01:30:09.221Z,35.27
2018-04-11T01:33:13.512Z,36.80
2018-04-11T01:36:17.423Z,38.73
2018-04-11T01:39:21.335Z,34.20
2018-04-11T01:42:25.215Z,34.73
2018-04-11T01:45:29.127Z,38.50
2018-04-11T01:48:34.243Z,38.40
2018-04-11T01:51:38.853Z,37.53
2018-04-11T01:54:42.700Z,36.10
2018-04-11T01:57:47.348Z,36.03
2018-04-11T02:00:51.939Z,37.33
2018-04-11T02:03:55.883Z,35.83
2018-04-11T02:07:00.299Z,35.83
2018-04-11T02:10:04.144Z,38.20
2018-04-11T02:13:08.032Z,35.37
2018-04-11T02:16:12.731Z,37.27
2018-04-11T02:19:17.359Z,37.57
2018-04-11T02:22:21.654Z,37.10
2018-04-11T02:25:25.518Z,39.83
2018-04-11T02:28:30.887Z,34.93
2018-04-11T02:31:35.233Z,37.00
2018-04-11T02:34:39.936Z,37.70
2018-04-11T02:37:44.208Z,37.67
2018-04-11T02:40:48.975Z,37.00
2018-04-11T02:43:52.896Z,37.07
2018-04-11T02:46:57.525Z,36.40
2018-04-11T02:50:01.752Z,36.73
2018-04-11T02:53:05.631Z,36.97
2018-04-11T02:56:09.973Z,34.67
2018-04-11T02:59:13.886Z,34.07
2018-04-11T03:02:17.837Z,37.80
2018-04-11T03:05:22.153Z,35.77
2018-04-11T03:08:25.983Z,35.93
2018-04-11T03:11:30.532Z,34.83
2018-04-11T03:14:35.758Z,37.63
2018-04-11T03:17:40.811Z,38.37
2018-04-11T03:20:44.700Z,38.37
2018-04-11T03:23:48.622Z,37.83
2018-04-11T03:26:52.539Z,36.87
2018-04-11T03:29:56.462Z,37.77
2018-04-11T03:33:00.772Z,38.83
2018-04-11T03:36:04.940Z,35.97
2018-04-11T03:39:09.671Z,36.67
2018-04-11T03:42:13.575Z,36.60
2018-04-11T03:45:18.268Z,38.03
2018-04-11T03:48:22.865Z,38.67
2018-04-11T03:51:26.676Z,37.13
2018-04-11T03:54:31.639Z,36.87
2018-04-11T03:57:35.531Z,37.50
2018-04-11T04:00:40.249Z,37.07
2018-04-11T04:03:44.568Z,37.37
2018-04-11T04:06:48.519Z,39.43
2018-04-11T04:09:52.608Z,36.77
2018-04-11T04:12:56.527Z,36.70
2018-04-11T04:16:18.615Z,37.83
2018-04-11T04:19:40.396Z,36.50
2018-04-11T04:22:45.904Z,34.60
2018-04-11T04:25:53.927Z,35.27
2018-04-11T04:28:58.885Z,34.87
2018-04-11T04:32:02.947Z,32.73
2018-04-11T04:35:12.062Z,33.23
2018-04-11T04:38:17.024Z,33.90
2018-04-11T04:41:21.238Z,31.67
2018-04-11T04:44:25.350Z,31.43
2018-04-11T04:47:30.689Z,30.63
2018-04-11T04:50:37.114Z,29.83
2018-04-11T04:53:41.731Z,30.50
2018-04-11T04:56:45.683Z,30.80
2018-04-11T04:59:50.631Z,29.67
2018-04-11T05:02:55.318Z,29.33
2018-04-11T05:05:59.228Z,28.63
2018-04-11T05:09:03.048Z,28.83
2018-04-11T05:12:06.868Z,29.73
2018-04-11T05:15:10.768Z,29.10
2018-04-11T05:18:14.656Z,28.17
2018-04-11T05:21:18.596Z,29.33
2018-04-11T05:24:22.465Z,28.00
2018-04-11T05:27:26.381Z,27.27
2018-04-11T05:30:31.125Z,27.63
2018-04-11T05:33:35.676Z,30.07
2018-04-11T05:36:39.630Z,26.90
2018-04-11T05:39:43.523Z,28.67
2018-04-11T05:42:47.446Z,27.53
2018-04-11T05:45:51.319Z,27.17
2018-04-11T05:48:55.484Z,27.83
2018-04-11T05:51:59.255Z,27.00
2018-04-11T05:55:03.848Z,27.40
2018-04-11T05:58:07.723Z,28.87
2018-04-11T06:01:11.917Z,26.87
2018-04-11T06:04:15.912Z,26.17
2018-04-11T06:07:20.142Z,26.00
2018-04-11T06:10:24.145Z,27.13
2018-04-11T06:13:27.934Z,27.20
2018-04-11T06:16:32.856Z,26.53
2018-04-11T06:19:37.016Z,25.17
2018-04-11T06:22:41.276Z,25.87
2018-04-11T06:25:46.339Z,26.00
2018-04-11T06:28:50.950Z,25.07
2018-04-11T06:31:55.312Z,27.07
2018-04-11T06:34:59.459Z,25.20
2018-04-11T06:38:03.316Z,26.43
2018-04-11T06:41:07.173Z,25.47
2018-04-11T06:44:11.008Z,24.83
2018-04-11T06:47:16.352Z,25.53
2018-04-11T06:50:20.182Z,25.30
2018-04-11T06:53:24.326Z,25.03
2018-04-11T06:56:28.208Z,26.13
2018-04-11T06:59:32.249Z,24.90
2018-04-11T07:02:37.836Z,24.13
2018-04-11T07:05:41.794Z,25.77
2018-04-11T07:08:47.822Z,24.13
2018-04-11T07:11:52.055Z,24.00
2018-04-11T07:14:56.504Z,24.40
2018-04-11T07:18:02.450Z,22.23
2018-04-11T07:21:06.360Z,24.33
2018-04-11T07:24:11.975Z,24.23
2018-04-11T07:27:15.863Z,23.13
2018-04-11T07:30:19.723Z,23.10
2018-04-11T07:33:24.348Z,22.93
2018-04-11T07:36:28.183Z,22.53
2018-04-11T07:39:32.072Z,23.03
2018-04-11T07:42:36.281Z,22.77
2018-04-11T07:45:40.129Z,21.50
2018-04-11T07:48:45.259Z,22.87
2018-04-11T07:51:49.099Z,20.87
2018-04-11T07:54:52.911Z,22.47
2018-04-11T07:57:57.135Z,21.57
2018-04-11T08:01:01.455Z,21.57
2018-04-11T08:04:05.709Z,21.90
2018-04-11T08:07:09.523Z,21.90
2018-04-11T08:10:13.767Z,21.80
2018-04-11T08:13:18.208Z,20.70
2018-04-11T08:16:22.442Z,23.03
2018-04-11T08:19:26.781Z,21.13
2018-04-11T08:22:31.016Z,21.60
2018-04-11T08:25:34.856Z,21.43
2018-04-11T08:28:39.090Z,22.37
2018-04-11T08:31:42.940Z,20.80
2018-04-11T08:34:46.795Z,20.77
2018-04-11T08:37:50.611Z,20.50
2018-04-11T08:40:54.457Z,20.23
2018-04-11T08:43:58.341Z,20.83
2018-04-11T08:47:03.225Z,21.13
2018-04-11T08:50:07.047Z,19.90
2018-04-11T08:53:11.527Z,19.37
2018-04-11T08:56:15.785Z,18.10
2018-04-11T08:59:19.592Z,18.12
2018-04-11T09:02:23.464Z,18.10
2018-04-11T09:05:27.369Z,18.02
2018-04-11T09:08:32.659Z,17.55
2018-04-11T09:11:36.525Z,18.45
2018-04-11T09:14:41.271Z,16.80
2018-04-11T09:17:45.527Z,17.87
2018-04-11T09:20:50.152Z,17.87
2018-04-11T09:23:54.341Z,17.48
2018-04-11T09:26:58.227Z,17.40
2018-04-11T09:30:02.052Z,17.62
2018-04-11T09:33:06.343Z,17.87
2018-04-11T09:36:10.123Z,17.87
2018-04-11T09:39:14.727Z,17.25
2018-04-11T09:42:18.576Z,17.12
2018-04-11T09:45:22.487Z,17.80
2018-04-11T09:48:26.312Z,17.55
2018-04-11T09:51:30.172Z,16.65
2018-04-11T09:54:34.005Z,18.05
2018-04-11T09:57:37.868Z,17.00
2018-04-11T10:00:41.695Z,18.02
2018-04-11T10:03:46.026Z,18.48
2018-04-11T10:06:49.897Z,17.52
2018-04-11T10:09:53.740Z,17.83
2018-04-11T10:12:58.363Z,18.70
2018-04-11T10:16:02.167Z,19.02
2018-04-11T10:19:06.066Z,15.98
2018-04-11T10:22:10.593Z,17.20
2018-04-11T10:25:14.432Z,17.70
2018-04-11T10:28:20.041Z,16.92
2018-04-11T10:31:23.889Z,17.80
2018-04-11T10:34:28.084Z,17.65
2018-04-11T10:37:31.917Z,16.08
2018-04-11T10:40:35.856Z,16.77
2018-04-11T10:43:41.447Z,18.52
2018-04-11T10:46:45.346Z,16.35
2018-04-11T10:49:49.607Z,15.95
2018-04-11T10:52:53.463Z,17.73
2018-04-11T10:55:57.299Z,17.35
2018-04-11T10:59:01.556Z,16.95
2018-04-11T11:02:05.396Z,17.30
2018-04-11T11:05:09.271Z,16.98
2018-04-11T11:08:13.196Z,16.05
2018-04-11T11:11:17.055Z,17.70
2018-04-11T11:14:21.496Z,17.62
2018-04-11T11:17:25.304Z,16.48
2018-04-11T11:20:30.249Z,15.07
2018-04-11T11:23:34.061Z,17.45
2018-04-11T11:26:39.765Z,16.05
2018-04-11T11:29:44.296Z,17.08
2018-04-11T11:32:48.166Z,17.52
2018-04-11T11:35:52.036Z,19.65
2018-04-11T11:38:56.891Z,17.37
2018-04-11T11:42:00.968Z,19.45
2018-04-11T11:45:05.032Z,19.33
2018-04-11T11:48:10.003Z,19.65
2018-04-11T11:51:13.871Z,23.33
2018-04-11T11:54:17.724Z,21.62
2018-04-11T11:57:21.648Z,22.42
2018-04-11T12:00:25.477Z,23.50
2018-04-11T12:03:29.314Z,23.83
2018-04-11T12:06:33.904Z,23.45
2018-04-11T12:09:38.207Z,23.08
2018-04-11T12:12:43.367Z,23.65
2018-04-11T12:15:47.511Z,22.37
2018-04-11T12:18:52.636Z,22.90
2018-04-11T12:21:56.469Z,23.92
2018-04-11T12:25:00.371Z,25.42
2018-04-11T12:28:04.963Z,26.23
2018-04-11T12:31:09.095Z,26.15
2018-04-11T12:34:12.928Z,25.62
2018-04-11T12:37:17.149Z,25.23
2018-04-11T12:40:21.123Z,23.80
2018-04-11T12:43:24.956Z,25.27
2018-04-11T12:46:29.558Z,23.90
2018-04-11T12:49:34.429Z,25.42
2018-04-11T12:52:38.637Z,23.30
2018-04-11T12:55:42.512Z,23.60
2018-04-11T12:58:46.267Z,23.00
2018-04-11T13:01:50.141Z,23.02
2018-04-11T13:04:53.983Z,23.20
2018-04-11T13:07:57.846Z,22.98
2018-04-11T13:11:01.652Z,21.75
2018-04-11T13:14:05.492Z,23.83
2018-04-11T13:17:10.456Z,24.60
2018-04-11T13:20:14.320Z,25.17
2018-04-11T13:23:18.791Z,23.55
2018-04-11T13:26:22.631Z,25.20
2018-04-11T13:29:26.851Z,24.33
2018-04-11T13:32:31.075Z,22.50
2018-04-11T13:35:34.884Z,25.67
2018-04-11T13:38:39.563Z,25.12
2018-04-11T13:41:45.056Z,25.83
2018-04-11T13:44:50.000Z,25.33
2018-04-11T13:47:54.991Z,25.00
2018-04-11T13:50:59.160Z,26.65
2018-04-11T13:54:03.019Z,24.92
2018-04-11T13:57:06.905Z,27.55
2018-04-11T14:00:10.704Z,28.95
2018-04-11T14:03:15.330Z,30.55
2018-04-11T14:06:20.474Z,29.98
2018-04-11T14:09:24.720Z,30.30
2018-04-11T14:12:29.297Z,30.17
2018-04-11T14:15:33.561Z,30.80
2018-04-11T14:18:38.191Z,31.10
2018-04-11T14:21:46.300Z,29.67
2018-04-11T14:24:50.162Z,29.70
2018-04-11T14:27:54.845Z,29.17
2018-04-11T14:30:58.652Z,29.08
2018-04-11T14:34:02.493Z,29.92
2018-04-11T14:37:06.358Z,29.87
2018-04-11T14:40:10.907Z,27.77
2018-04-11T14:43:15.524Z,26.55
2018-04-11T14:46:19.352Z,28.67
2018-04-11T14:49:23.207Z,29.95
2018-04-11T14:52:27.043Z,30.75
2018-04-11T14:55:31.481Z,29.52
2018-04-11T14:58:36.389Z,31.23
2018-04-11T15:01:40.953Z,30.95
2018-04-11T15:04:44.861Z,32.83
2018-04-11T15:07:49.127Z,32.25
2018-04-11T15:10:53.363Z,32.95
2018-04-11T15:13:57.724Z,30.37
2018-04-11T15:17:01.544Z,36.03
2018-04-11T15:20:05.793Z,34.20
2018-04-11T15:23:10.014Z,31.45
2018-04-11T15:26:14.160Z,30.60
2018-04-11T15:29:18.748Z,33.33
2018-04-11T15:32:22.592Z,33.72
2018-04-11T15:35:27.187Z,34.63
2018-04-11T15:38:31.049Z,33.30
2018-04-11T15:41:35.697Z,34.75
2018-04-11T15:44:39.548Z,36.50
2018-04-11T15:47:43.367Z,39.83
2018-04-11T15:50:48.026Z,41.42
2018-04-11T15:53:52.629Z,38.97
2018-04-11T15:56:57.532Z,38.70
2018-04-11T16:00:06.988Z,40.27
2018-04-11T16:03:11.644Z,38.70
2018-04-11T16:06:17.491Z,38.60
2018-04-11T16:09:23.513Z,39.73
2018-04-11T16:12:28.098Z,40.30
2018-04-11T16:15:32.688Z,38.60
2018-04-11T16:18:37.320Z,39.37
2018-04-11T16:21:42.531Z,40.10
2018-04-11T16:24:46.827Z,38.43
2018-04-11T16:27:51.261Z,40.40
2018-04-11T16:30:56.256Z,39.10
2018-04-11T16:34:01.798Z,41.77
2018-04-11T16:37:06.416Z,35.73
2018-04-11T16:40:11.556Z,37.13
2018-04-11T16:43:16.410Z,35.80
2018-04-11T16:46:20.216Z,38.53
2018-04-11T16:49:25.375Z,38.13
2018-04-11T16:52:30.415Z,37.07
2018-04-11T16:55:35.018Z,36.43
2018-04-11T16:58:39.763Z,37.27
2018-04-11T17:01:44.119Z,40.47
2018-04-11T17:04:48.040Z,40.10
2018-04-11T17:07:52.708Z,41.47
2018-04-11T17:10:57.533Z,42.03
2018-04-11T17:14:01.788Z,41.63
2018-04-11T17:17:06.121Z,39.78
2018-04-11T17:20:11.030Z,41.03
2018-04-11T17:23:32.988Z,41.70
2018-04-11T17:26:55.463Z,42.30
2018-04-11T17:30:17.517Z,42.43
2018-04-11T17:33:21.364Z,43.53
2018-04-11T17:36:25.277Z,43.80
2018-04-11T17:39:29.172Z,41.95
2018-04-11T17:42:34.420Z,42.33
2018-04-11T17:45:38.284Z,43.60
2018-04-11T17:48:43.304Z,43.13
2018-04-11T17:51:47.682Z,43.50
2018-04-11T17:54:51.959Z,43.87
2018-04-11T17:57:56.518Z,44.87
2018-04-11T18:01:00.446Z,42.23
2018-04-11T18:04:05.205Z,49.00
2018-04-11T18:07:09.852Z,46.20
2018-04-11T18:10:15.692Z,44.80
2018-04-11T18:13:19.977Z,45.70
2018-04-11T18:16:24.425Z,43.87
2018-04-11T18:19:29.729Z,44.90
2018-04-11T18:22:34.806Z,44.37
2018-04-11T18:25:39.574Z,44.80
2018-04-11T18:28:44.191Z,44.03
2018-04-11T18:31:48.552Z,44.37
2018-04-11T18:34:53.308Z,45.90
2018-04-11T18:37:58.576Z,44.30
2018-04-11T18:41:03.780Z,45.03
2018-04-11T18:44:08.448Z,44.57
2018-04-11T18:47:12.441Z,44.43
2018-04-11T18:50:17.036Z,43.67
2018-04-11T18:53:21.652Z,45.60
2018-04-11T18:56:26.416Z,40.93
2018-04-11T18:59:30.447Z,44.73
2018-04-11T19:02:35.217Z,45.73
2018-04-11T19:05:40.381Z,45.63
2018-04-11T19:08:45.532Z,45.20
2018-04-11T19:11:50.239Z,47.87
2018-04-11T19:14:54.547Z,48.13
2018-04-11T19:17:59.809Z,47.53
2018-04-11T19:21:04.952Z,47.47
2018-04-11T19:24:09.154Z,49.40
2018-04-11T19:27:14.765Z,49.63
2018-04-11T19:30:19.232Z,49.83
2018-04-11T19:33:23.106Z,51.33
2018-04-11T19:36:28.144Z,52.37
2018-04-11T19:39:32.348Z,49.47
2018-04-11T19:42:36.718Z,51.03
2018-04-11T19:45:41.481Z,55.40
2018-04-11T19:48:46.269Z,50.53
2018-04-11T19:51:52.191Z,53.20
2018-04-11T19:54:56.407Z,55.63
2018-04-11T19:58:00.393Z,51.67
2018-04-11T20:01:06.634Z,53.30
2018-04-11T20:04:12.840Z,52.33
2018-04-11T20:07:21.712Z,51.67
2018-04-11T20:10:28.657Z,52.90
2018-04-11T20:13:33.239Z,51.17
2018-04-11T20:16:40.049Z,53.13
2018-04-11T20:19:44.403Z,52.83
2018-04-11T20:22:48.827Z,53.67
2018-04-11T20:25:53.542Z,54.30
2018-04-11T20:28:58.448Z,52.93
2018-04-11T20:32:03.769Z,56.27
2018-04-11T20:35:07.664Z,50.23
2018-04-11T20:38:12.439Z,50.43
2018-04-11T20:41:17.126Z,50.43
2018-04-11T20:44:21.863Z,49.50
2018-04-11T20:47:26.177Z,46.97
2018-04-11T20:50:30.896Z,48.67
2018-04-11T20:53:35.527Z,48.97
2018-04-11T20:56:39.968Z,46.17
2018-04-11T20:59:44.681Z,48.27
2018-04-11T21:02:49.254Z,46.50
2018-04-11T21:05:53.549Z,45.40
2018-04-11T21:08:57.452Z,45.13
2018-04-11T21:12:05.047Z,45.63
2018-04-11T21:15:08.940Z,45.17
2018-04-11T21:18:13.551Z,43.20
2018-04-11T21:21:18.613Z,44.50
2018-04-11T21:24:23.027Z,45.10
2018-04-11T21:27:26.645Z,42.87
2018-04-11T21:30:32.224Z,44.00
2018-04-11T21:33:36.178Z,41.60
2018-04-11T21:36:39.984Z,43.13
2018-04-11T21:39:45.190Z,41.07
2018-04-11T21:42:49.488Z,44.13
2018-04-11T21:45:53.408Z,41.77
2018-04-11T21:48:57.320Z,43.47
2018-04-11T21:52:01.190Z,44.67
2018-04-11T21:55:05.104Z,44.90
2018-04-11T21:58:09.432Z,43.87
2018-04-11T22:01:13.428Z,45.50
2018-04-11T22:04:17.251Z,45.93
2018-04-11T22:07:23.156Z,46.43
2018-04-11T22:10:27.136Z,47.53
2018-04-11T22:13:31.459Z,49.27
2018-04-11T22:16:35.953Z,46.63
2018-04-11T22:19:40.257Z,49.87
2018-04-11T22:22:44.969Z,50.10
2018-04-11T22:25:52.089Z,50.37
2018-04-11T22:28:55.941Z,49.60
2018-04-11T22:32:00.238Z,49.43
2018-04-11T22:35:05.388Z,52.67
2018-04-11T22:38:10.365Z,51.30
2018-04-11T22:41:15.259Z,51.80
2018-04-11T22:44:19.352Z,53.50
2018-04-11T22:47:23.915Z,51.07
2018-04-11T22:50:28.211Z,50.77
2018-04-11T22:53:32.711Z,51.73
2018-04-11T22:56:37.945Z,53.23
2018-04-11T22:59:43.571Z,49.77
2018-04-11T23:02:47.735Z,47.27
2018-04-11T23:05:51.876Z,45.03
2018-04-11T23:08:56.565Z,45.17
2018-04-11T23:12:00.915Z,44.70
2018-04-11T23:15:05.669Z,45.43
2018-04-11T23:18:10.358Z,43.07
2018-04-11T23:21:16.084Z,44.47
2018-04-11T23:24:20.028Z,43.60
2018-04-11T23:27:24.591Z,45.40
2018-04-11T23:30:28.819Z,43.70
2018-04-11T23:33:33.437Z,44.27
2018-04-11T23:36:37.711Z,44.77
2018-04-11T23:39:42.153Z,44.10
2018-04-11T23:42:47.148Z,45.23
2018-04-11T23:45:51.500Z,40.97
2018-04-11T23:48:55.787Z,40.63
2018-04-11T23:52:00.833Z,40.63
2018-04-11T23:55:05.465Z,42.43
2018-04-11T23:58:10.081Z,40.17
